Covington, Louisiana
Current Conditions -  °F | °C
As of 8:33 PM on Sunday 23 Nov 2014 (Local Time) from KASD Reporting Station
Overcast Overcast  
Wind Chill: 67°   Ceiling: 900
Heat Index: 67°   Visibility: 9mi
Dew Point: 64°   Wind: 8mph
Humidity: 90%   Direction: 180°S
Pressure: 29.71"   Gusts: NA
Location:  30.48°N, 90.09°W
Report Text: KASD 240233Z AUTO 18007KT 9SM BKN009 OVC012 19/18 A2971 RMK AO2 T01940178
Loading
Personal Weather Stations






























Interactive Weather Map New forecast layout! Learn more

10-Day Weather Forecast

Advertisements
Track Severe Weather on mobile